Terminal Aerodrome Forecast
Issued by NWS

Home | Current Version | Previous Version | Text Only | Print | Product List | Glossary On
Versions: 1 2 3 4 5 6 7 8 9 10 11 12 13 14 15
000
FTUS42 KGSP 051130
TAFGMU
TAF
KGMU 051130Z 0512/0612 04010KT P6SM SCT060 BKN250
     FM051600 05010KT P6SM VCTS BKN060CB
     FM052100 05008KT P6SM BKN045 PROB30 0521/0524 4SM TSRA BKN040CB
     FM060000 05008KT P6SM BKN050
     FM060800 03010KT P6SM OVC025
     FM061000 03010KT P6SM OVC015=

USA.gov is the U.S. government's official web portal to all federal, state and local government web resources and services.